SoundGuardian — WDI8675 — position and weather

sailwx.info

Track history (hours):
 
Tides and Currents Weather Stations Pressure Air Temp Water Temp Dewpoint Dewpoint Depression Visibility Wind Speed Wind Dir Waves Ship Positions

Oceanographic research ship SoundGuardian (United States)

Owner: King County Environmental Laboratory, Seattle, WA. More information available from US FCC via Universal Licensing System and Coast Guard Vessel Documentation Center.

Last reported at 2019-Apr-16 22:20 UTC. Time now 2019-Apr-18 20:51 UTC.
Position N 47°39' W 122°22'.

Length 13 m; draft 1 m.

Type: Other ship. MMSI: 367741020.

Date/timePositionNaut miles runAvg speedWind from/ knotsBaromVisibWave heightAir tempDewpointWater temp
2019-Apr-16 22:20N 47°39' W 122°22'2 4.9
2019-Apr-16 22:00N 47°40' W 122°24'2 3.7
2019-Apr-16 21:30N 47°40' W 122°27'1427.8
2019-Apr-16 21:01N 47°26' W 122°23'5 9.7
2019-Apr-16 20:31N 47°22' W 122°23'0 0.3
2019-Apr-16 20:01N 47°22' W 122°23'611.7
2019-Apr-16 19:31N 47°27' W 122°26'5 9.6
2019-Apr-16 19:00N 47°32' W 122°26'0 0.0
2019-Apr-16 18:30N 47°32' W 122°26'1 2.3
2019-Apr-16 18:00N 47°32' W 122°24'0 0.0
2019-Apr-16 17:30N 47°32' W 122°24'0 0.0
2019-Apr-16 17:00N 47°32' W 122°24'2 3.4
2019-Apr-16 16:31N 47°34' W 122°25'2 4.5
2019-Apr-16 16:00N 47°36' W 122°26'1 2.9
2019-Apr-16 15:30N 47°38' W 122°26'3 5.5
2019-Apr-16 15:00N 47°40' W 122°24'2 3.1
2019-Apr-16 14:30N 47°39' W 122°22'0 0.1
2019-Apr-16 14:01N 47°39' W 122°22'0 0.0
2019-Apr-16 13:31N 47°39' W 122°22'0 0.0
2019-Apr-15 22:51N 47°39' W 122°22'2 4.6
2019-Apr-15 22:30N 47°40' W 122°24'2 3.9
2019-Apr-15 22:00N 47°39' W 122°26'711.6
2019-Apr-15 21:24N 47°33' W 122°20'2 4.0
2019-Apr-15 20:59N 47°32' W 122°19'3 5.9
2019-Apr-15 20:30N 47°34' W 122°21'1 1.9
2019-Apr-15 20:00N 47°35' W 122°21'0 0.0
2019-Apr-15 19:30N 47°35' W 122°21'1 2.0
2019-Apr-15 18:50N 47°36' W 122°21'1 2.8
2019-Apr-15 18:29N 47°37' W 122°22'4 8.9
2019-Apr-15 18:01N 47°40' W 122°27'714.2
2019-Apr-15 17:30N 47°47' W 122°25'2 3.5
2019-Apr-15 17:00N 47°45' W 122°25'0 0.6
2019-Apr-15 16:31N 47°45' W 122°26'0 0.1
2019-Apr-15 16:00N 47°45' W 122°26'2 3.1
2019-Apr-15 15:31N 47°43' W 122°24'3 5.2
2019-Apr-15 15:00N 47°41' W 122°25'1 3.0
2019-Apr-15 14:30N 47°40' W 122°24'1 2.8
2019-Apr-15 14:00N 47°39' W 122°22'  
2019-Apr-11 21:15N 47°39' W 122°22'1 3.4
2019-Apr-11 21:00N 47°39' W 122°21'0 0.4
2019-Apr-11 20:30N 47°39' W 122°21'2 4.5
2019-Apr-11 20:00N 47°40' W 122°24'510.4
2019-Apr-11 19:30N 47°45' W 122°25'4423.5
2019-Apr-11 17:38N 48°27' W 122°43'428.6
2019-Apr-11 17:30N 48°31' W 122°42'13 0.7
2019-Apr-10 22:28N 48°43' W 122°33'920.4
2019-Apr-10 22:00N 48°37' W 122°43'1121.0
2019-Apr-10 21:29N 48°36' W 122°59'715.3
2019-Apr-10 21:01N 48°36' W 123°10'1 0.4
2019-Apr-10 18:50N 48°35' W 123°09'1 0.7
2019-Apr-10 16:52N 48°35' W 123°11'3 9.2
2019-Apr-10 16:30N 48°38' W 123°09'1220.3
2019-Apr-10 15:54N 48°43' W 122°52'921.7
2019-Apr-10 15:30N 48°39' W 122°40'5 0.3
2019-Apr-09 23:39N 48°41' W 122°33'431.0
2019-Apr-09 23:30N 48°37' W 122°34'41 9.6
2019-Apr-09 19:12N 47°57' W 122°20'525.2
2019-Apr-09 19:00N 47°53' W 122°22'1123.0
2019-Apr-09 18:31N 47°41' W 122°25'2 4.4
2019-Apr-09 18:00N 47°40' W 122°23'1 1.8
2019-Apr-09 17:30N 47°39' W 122°22'0 0.0
2019-Apr-09 17:00N 47°39' W 122°22'0 0.0
2019-Apr-09 16:30N 47°39' W 122°22'0 0.0
2019-Apr-09 16:00N 47°39' W 122°22'0 0.0
2019-Apr-09 15:30N 47°39' W 122°22'0 0.0
2019-Apr-08 21:18N 47°39' W 122°22'1 2.9
2019-Apr-08 21:00N 47°39' W 122°21'0 0.0
2019-Apr-08 20:30N 47°39' W 122°21'2 3.2
2019-Apr-08 20:00N 47°39' W 122°18'713.9
2019-Apr-08 19:30N 47°32' W 122°15'3 5.6
2019-Apr-08 18:59N 47°35' W 122°15'2 2.7
2019-Apr-08 18:25N 47°37' W 122°15'2 3.9
2019-Apr-08 18:00N 47°38' W 122°16'1 1.7
2019-Apr-08 17:31N 47°39' W 122°16'2 3.8
2019-Apr-08 17:00N 47°41' W 122°15'1 1.2
2019-Apr-08 16:30N 47°41' W 122°14'3 6.9
2019-Apr-08 16:01N 47°39' W 122°18'2 3.4
2019-Apr-08 15:30N 47°38' W 122°20'1 1.1
2019-Apr-08 15:01N 47°39' W 122°21'2 5.0
2019-Apr-08 14:31N 47°40' W 122°24'2 3.1
2019-Apr-08 14:00N 47°39' W 122°22'  
Track history (hours):
 
Tides and Currents Weather Stations Pressure Air Temp Water Temp Dewpoint Dewpoint Depression Visibility Wind Speed Wind Dir Waves Ship Positions

Oceanographic research ship SoundGuardian (United States)

Owner: King County Environmental Laboratory, Seattle, WA. More information available from US FCC via Universal Licensing System and Coast Guard Vessel Documentation Center.

Last reported at 2019-Apr-16 22:20 UTC. Time now 2019-Apr-18 20:51 UTC.
Position N 47°39' W 122°22'.

Length 13 m; draft 1 m.

Type: Other ship. MMSI: 367741020.

Date/timePositionNaut miles runAvg speedWind from/ knotsBaromVisibWave heightAir tempDewpointWater temp
2019-Apr-16 22:20N 47°39' W 122°22'2 4.9
2019-Apr-16 22:00N 47°40' W 122°24'2 3.7
2019-Apr-16 21:30N 47°40' W 122°27'1427.8
2019-Apr-16 21:01N 47°26' W 122°23'5 9.7
2019-Apr-16 20:31N 47°22' W 122°23'0 0.3
2019-Apr-16 20:01N 47°22' W 122°23'611.7
2019-Apr-16 19:31N 47°27' W 122°26'5 9.6
2019-Apr-16 19:00N 47°32' W 122°26'0 0.0
2019-Apr-16 18:30N 47°32' W 122°26'1 2.3
2019-Apr-16 18:00N 47°32' W 122°24'0 0.0
2019-Apr-16 17:30N 47°32' W 122°24'0 0.0
2019-Apr-16 17:00N 47°32' W 122°24'2 3.4
2019-Apr-16 16:31N 47°34' W 122°25'2 4.5
2019-Apr-16 16:00N 47°36' W 122°26'1 2.9
2019-Apr-16 15:30N 47°38' W 122°26'3 5.5
2019-Apr-16 15:00N 47°40' W 122°24'2 3.1
2019-Apr-16 14:30N 47°39' W 122°22'0 0.1
2019-Apr-16 14:01N 47°39' W 122°22'0 0.0
2019-Apr-16 13:31N 47°39' W 122°22'0 0.0
2019-Apr-15 22:51N 47°39' W 122°22'2 4.6
2019-Apr-15 22:30N 47°40' W 122°24'2 3.9
2019-Apr-15 22:00N 47°39' W 122°26'711.6
2019-Apr-15 21:24N 47°33' W 122°20'2 4.0
2019-Apr-15 20:59N 47°32' W 122°19'3 5.9
2019-Apr-15 20:30N 47°34' W 122°21'1 1.9
2019-Apr-15 20:00N 47°35' W 122°21'0 0.0
2019-Apr-15 19:30N 47°35' W 122°21'1 2.0
2019-Apr-15 18:50N 47°36' W 122°21'1 2.8
2019-Apr-15 18:29N 47°37' W 122°22'4 8.9
2019-Apr-15 18:01N 47°40' W 122°27'714.2
2019-Apr-15 17:30N 47°47' W 122°25'2 3.5
2019-Apr-15 17:00N 47°45' W 122°25'0 0.6
2019-Apr-15 16:31N 47°45' W 122°26'0 0.1
2019-Apr-15 16:00N 47°45' W 122°26'2 3.1
2019-Apr-15 15:31N 47°43' W 122°24'3 5.2
2019-Apr-15 15:00N 47°41' W 122°25'1 3.0
2019-Apr-15 14:30N 47°40' W 122°24'1 2.8
2019-Apr-15 14:00N 47°39' W 122°22'  
2019-Apr-11 21:15N 47°39' W 122°22'1 3.4
2019-Apr-11 21:00N 47°39' W 122°21'0 0.4
2019-Apr-11 20:30N 47°39' W 122°21'2 4.5
2019-Apr-11 20:00N 47°40' W 122°24'510.4
2019-Apr-11 19:30N 47°45' W 122°25'4423.5
2019-Apr-11 17:38N 48°27' W 122°43'428.6
2019-Apr-11 17:30N 48°31' W 122°42'13 0.7
2019-Apr-10 22:28N 48°43' W 122°33'920.4
2019-Apr-10 22:00N 48°37' W 122°43'1121.0
2019-Apr-10 21:29N 48°36' W 122°59'715.3
2019-Apr-10 21:01N 48°36' W 123°10'1 0.4
2019-Apr-10 18:50N 48°35' W 123°09'1 0.7
2019-Apr-10 16:52N 48°35' W 123°11'3 9.2
2019-Apr-10 16:30N 48°38' W 123°09'1220.3
2019-Apr-10 15:54N 48°43' W 122°52'921.7
2019-Apr-10 15:30N 48°39' W 122°40'5 0.3
2019-Apr-09 23:39N 48°41' W 122°33'431.0
2019-Apr-09 23:30N 48°37' W 122°34'41 9.6
2019-Apr-09 19:12N 47°57' W 122°20'525.2
2019-Apr-09 19:00N 47°53' W 122°22'1123.0
2019-Apr-09 18:31N 47°41' W 122°25'2 4.4
2019-Apr-09 18:00N 47°40' W 122°23'1 1.8
2019-Apr-09 17:30N 47°39' W 122°22'0 0.0
2019-Apr-09 17:00N 47°39' W 122°22'0 0.0
2019-Apr-09 16:30N 47°39' W 122°22'0 0.0
2019-Apr-09 16:00N 47°39' W 122°22'0 0.0
2019-Apr-09 15:30N 47°39' W 122°22'0 0.0
2019-Apr-08 21:18N 47°39' W 122°22'1 2.9
2019-Apr-08 21:00N 47°39' W 122°21'0 0.0
2019-Apr-08 20:30N 47°39' W 122°21'2 3.2
2019-Apr-08 20:00N 47°39' W 122°18'713.9
2019-Apr-08 19:30N 47°32' W 122°15'3 5.6
2019-Apr-08 18:59N 47°35' W 122°15'2 2.7
2019-Apr-08 18:25N 47°37' W 122°15'2 3.9
2019-Apr-08 18:00N 47°38' W 122°16'1 1.7
2019-Apr-08 17:31N 47°39' W 122°16'2 3.8
2019-Apr-08 17:00N 47°41' W 122°15'1 1.2
2019-Apr-08 16:30N 47°41' W 122°14'3 6.9
2019-Apr-08 16:01N 47°39' W 122°18'2 3.4
2019-Apr-08 15:30N 47°38' W 122°20'1 1.1
2019-Apr-08 15:01N 47°39' W 122°21'2 5.0
2019-Apr-08 14:31N 47°40' W 122°24'2 3.1
2019-Apr-08 14:00N 47°39' W 122°22'  

Dump ship's entire track history